Aeroporto :
LOGIN :

Iscrizione | Disclaimer

   EN    FR    IT 

 










Sommario :    VFR   VFR Marginale   IFR   IFR Intensivo   IFR Molto Intensivo
Visibilità : 
Base nubi : 
>= 8 km
>= 3000ft
5 / 8 km
1000 / 3000 ft
1500m / 5 km
500 / 1000 ft
800 / 1500m
200 / 500 ft
< 800m
< 200 ft
Simboli :   Temporali  Nebbia  Neve Forte  Precipitazioni Forti  Vento > 20 kt
SIGMETs :   Varie  Temporali  Ghiacco  Turbolenza  Onda orograficha  Ceneri Vulcaniche






- Altitudine del aeroporto : 82 ft
- Codice IATA : QIE


LFMI - Istres

ULTIMO METAR :
  • 220330Z AUTO VRB02KT 8000 RA FEW033/// BKN078/// OVC090/// ///TCU 15/15 Q1019 BECMG NSW FEW030 BKN080

METARs OBSOLETI :
  • 220300Z AUTO 36003KT 9999 FEW036/// BKN088/// OVC110/// ///TCU 15/15 Q1019 TEMPO RA BECMG FEW030 BKN080
  • 220230Z AUTO 34004KT 300V010 9999 -RA NSC 15/15 Q1019 TEMPO RA
  • 220200Z AUTO 01009KT 9999 -RA FEW043 BKN110 OVC130 15/15 Q1018 TEMPO RA
  • 220130Z AUTO 32007KT 9999 FEW045/// BKN110/// OVC140/// ///TCU 15/15 Q1019 TEMPO RA SCT012
  • 220100Z AUTO 02005KT 9999 -RA ///TCU 15/15 Q1019 TEMPO 4000 TSRA SCT010 SCT020CB

TAF TAF LFMI
Valido dal 22 a 03 ore il 23 a 03 ore UTC


220200Z 2203/2303 36010KT 9999 FEW030 BKN080
TEMPO 2203/2204 RA SCT012
BECMG 2209/2211 10015G25KT
TEMPO 2211/2214 10020G35KT
TEMPO 2212/2218 SHRA SCT040TCU
PROB30
TEMPO 2212/2215 TSRA SCT030CB
BECMG 2215/2217 02012KT
BECMG 2219/2221 NSC
TEMPO 2300/2303 09015G25KT



MetMap, La meteo Aeronautica in un colpo d'occhio ! - Copyright ORBIFLY Dicembre 2007 - Disclaimer

ORBIFLY MET'MAP TEAM :

Programmazione e sviluppo : Alexandra Zaïnal
Concezione e sviluppo : Baudouin d'Aumeries
Co-Programmazione e sviluppo : Marc-Olivier Méhu
Supporto tecnico e logistico : Manuel Goepfert
Aiuto per la traduzione : Arnaldo La Scala

Contatto : metmap@orbifly.com




FONTI E CREDITI :

   NOAA